sensor_id;sensor_type;location;lat;lon;timestamp;pressure;altitude;pressure_sealevel;temperature;humidity
69957;BME280;57283;54.816;9.482;2022-11-15T00:01:09;100800.72;;;5.95;100.00
69957;BME280;57283;54.816;9.482;2022-11-15T00:03:40;100824.78;;;6.15;100.00
69957;BME280;57283;54.816;9.482;2022-11-15T00:06:08;100819.59;;;6.17;100.00
69957;BME280;57283;54.816;9.482;2022-11-15T00:08:36;100823.06;;;6.14;100.00
69957;BME280;57283;54.816;9.482;2022-11-15T00:11:04;100815.28;;;6.16;100.00
69957;BME280;57283;54.816;9.482;2022-11-15T00:13:32;100804.91;;;6.16;100.00
69957;BME280;57283;54.816;9.482;2022-11-15T00:16:01;100804.06;;;6.15;100.00
69957;BME280;57283;54.816;9.482;2022-11-15T00:18:30;100798.00;;;6.15;100.00
69957;BME280;57283;54.816;9.482;2022-11-15T00:21:03;100785.91;;;6.14;100.00
69957;BME280;57283;54.816;9.482;2022-11-15T00:23:32;100782.38;;;6.21;100.00
69957;BME280;57283;54.816;9.482;2022-11-15T00:26:00;100743.56;;;6.10;100.00
69957;BME280;57283;54.816;9.482;2022-11-15T00:28:28;100774.50;;;6.35;100.00
69957;BME280;57283;54.816;9.482;2022-11-15T00:31:00;100772.78;;;6.34;100.00
69957;BME280;57283;54.816;9.482;2022-11-15T00:33:29;100750.41;;;6.20;100.00
69957;BME280;57283;54.816;9.482;2022-11-15T00:36:02;100781.44;;;6.33;100.00
69957;BME280;57283;54.816;9.482;2022-11-15T00:38:31;100765.03;;;6.29;100.00
69957;BME280;57283;54.816;9.482;2022-11-15T00:41:00;100764.16;;;6.32;100.00
69957;BME280;57283;54.816;9.482;2022-11-15T00:43:35;100776.25;;;6.33;100.00
69957;BME280;57283;54.816;9.482;2022-11-15T00:46:03;100776.22;;;6.34;100.00
69957;BME280;57283;54.816;9.482;2022-11-15T00:48:32;100778.81;;;6.34;100.00
69957;BME280;57283;54.816;9.482;2022-11-15T00:51:00;100785.72;;;6.37;100.00
69957;BME280;57283;54.816;9.482;2022-11-15T00:53:28;100789.22;;;6.33;100.00
69957;BME280;57283;54.816;9.482;2022-11-15T00:55:56;100788.38;;;6.30;100.00
69957;BME280;57283;54.816;9.482;2022-11-15T00:58:24;100781.41;;;6.36;100.00
69957;BME280;57283;54.816;9.482;2022-11-15T01:00:52;100788.25;;;6.43;100.00
69957;BME280;57283;54.816;9.482;2022-11-15T01:03:21;100724.53;;;6.14;100.00
69957;BME280;57283;54.816;9.482;2022-11-15T01:05:50;100782.16;;;6.48;100.00
69957;BME280;57283;54.816;9.482;2022-11-15T01:08:18;100776.09;;;6.48;100.00
69957;BME280;57283;54.816;9.482;2022-11-15T01:10:46;100759.78;;;6.37;100.00
69957;BME280;57283;54.816;9.482;2022-11-15T01:13:13;100762.31;;;6.41;100.00
69957;BME280;57283;54.816;9.482;2022-11-15T01:15:41;100752.03;;;6.34;100.00
69957;BME280;57283;54.816;9.482;2022-11-15T01:18:09;100764.03;;;6.44;100.00
69957;BME280;57283;54.816;9.482;2022-11-15T01:20:39;100758.84;;;6.41;100.00
69957;BME280;57283;54.816;9.482;2022-11-15T01:23:09;100743.28;;;6.41;100.00
69957;BME280;57283;54.816;9.482;2022-11-15T01:25:37;100757.13;;;6.43;100.00
69957;BME280;57283;54.816;9.482;2022-11-15T01:28:05;100767.50;;;6.43;100.00
69957;BME280;57283;54.816;9.482;2022-11-15T01:30:33;100746.84;;;6.34;100.00
69957;BME280;57283;54.816;9.482;2022-11-15T01:33:01;100748.50;;;6.38;100.00
69957;BME280;57283;54.816;9.482;2022-11-15T01:35:29;100748.50;;;6.39;100.00
69957;BME280;57283;54.816;9.482;2022-11-15T01:37:56;100753.66;;;6.44;100.00
69957;BME280;57283;54.816;9.482;2022-11-15T01:40:26;100748.50;;;6.38;100.00
69957;BME280;57283;54.816;9.482;2022-11-15T01:42:53;100736.34;;;6.46;100.00
69957;BME280;57283;54.816;9.482;2022-11-15T01:45:21;100737.19;;;6.48;100.00
69957;BME280;57283;54.816;9.482;2022-11-15T01:47:52;100739.75;;;6.51;100.00
69957;BME280;57283;54.816;9.482;2022-11-15T01:50:24;100746.69;;;6.49;100.00
69957;BME280;57283;54.816;9.482;2022-11-15T01:52:54;100744.94;;;6.52;100.00
69957;BME280;57283;54.816;9.482;2022-11-15T01:55:26;100742.38;;;6.46;100.00
69957;BME280;57283;54.816;9.482;2022-11-15T01:57:58;100735.47;;;6.47;100.00
69957;BME280;57283;54.816;9.482;2022-11-15T02:00:28;100732.78;;;6.54;100.00
69957;BME280;57283;54.816;9.482;2022-11-15T02:02:56;100725.91;;;6.50;100.00
69957;BME280;57283;54.816;9.482;2022-11-15T02:05:24;100734.41;;;6.66;100.00
69957;BME280;57283;54.816;9.482;2022-11-15T02:07:53;100703.31;;;6.60;100.00
69957;BME280;57283;54.816;9.482;2022-11-15T02:10:22;100707.56;;;6.69;100.00
69957;BME280;57283;54.816;9.482;2022-11-15T02:12:52;100704.97;;;6.67;100.00
69957;BME280;57283;54.816;9.482;2022-11-15T02:15:23;100700.69;;;6.64;100.00
69957;BME280;57283;54.816;9.482;2022-11-15T02:18:01;100686.00;;;6.62;100.00
69957;BME280;57283;54.816;9.482;2022-11-15T02:20:42;100698.97;;;6.60;100.00
69957;BME280;57283;54.816;9.482;2022-11-15T02:23:49;100696.41;;;6.59;100.00
69957;BME280;57283;54.816;9.482;2022-11-15T02:29:33;100696.38;;;6.60;100.00
69957;BME280;57283;54.816;9.482;2022-11-15T02:32:11;100705.88;;;6.63;100.00
69957;BME280;57283;54.816;9.482;2022-11-15T02:34:50;100692.97;;;6.57;100.00
69957;BME280;57283;54.816;9.482;2022-11-15T02:37:28;100691.25;;;6.56;100.00
69957;BME280;57283;54.816;9.482;2022-11-15T02:40:01;100680.84;;;6.59;100.00
69957;BME280;57283;54.816;9.482;2022-11-15T02:42:36;100701.63;;;6.56;100.00
69957;BME280;57283;54.816;9.482;2022-11-15T02:45:25;100697.22;;;6.62;100.00
69957;BME280;57283;54.816;9.482;2022-11-15T02:47:58;100692.75;;;6.75;100.00
69957;BME280;57283;54.816;9.482;2022-11-15T02:50:28;100687.53;;;6.78;100.00
69957;BME280;57283;54.816;9.482;2022-11-15T02:52:57;100676.31;;;6.75;100.00
69957;BME280;57283;54.816;9.482;2022-11-15T02:55:27;100687.38;;;6.90;100.00
69957;BME280;57283;54.816;9.482;2022-11-15T02:58:06;100683.84;;;6.97;100.00
69957;BME280;57283;54.816;9.482;2022-11-15T03:00:45;100682.16;;;6.93;100.00
69957;BME280;57283;54.816;9.482;2022-11-15T03:03:40;100676.88;;;6.99;100.00
69957;BME280;57283;54.816;9.482;2022-11-15T03:06:20;100673.50;;;6.93;100.00
69957;BME280;57283;54.816;9.482;2022-11-15T03:08:56;100674.25;;;7.03;100.00
69957;BME280;57283;54.816;9.482;2022-11-15T03:11:25;100671.56;;;7.09;100.00
69957;BME280;57283;54.816;9.482;2022-11-15T03:13:57;100629.50;;;6.84;100.00
69957;BME280;57283;54.816;9.482;2022-11-15T03:16:30;100675.91;;;7.05;100.00
69957;BME280;57283;54.816;9.482;2022-11-15T03:19:07;100669.84;;;7.08;100.00
69957;BME280;57283;54.816;9.482;2022-11-15T03:21:40;100669.75;;;7.14;100.00
69957;BME280;57283;54.816;9.482;2022-11-15T03:24:08;100661.34;;;6.96;100.00
69957;BME280;57283;54.816;9.482;2022-11-15T03:26:38;100641.34;;;7.03;100.00
69957;BME280;57283;54.816;9.482;2022-11-15T03:29:12;100639.56;;;7.05;100.00
69957;BME280;57283;54.816;9.482;2022-11-15T03:31:45;100649.97;;;7.05;100.00
69957;BME280;57283;54.816;9.482;2022-11-15T03:34:24;100644.88;;;6.99;100.00
69957;BME280;57283;54.816;9.482;2022-11-15T03:36:53;100649.19;;;6.98;100.00
69957;BME280;57283;54.816;9.482;2022-11-15T03:39:22;100633.56;;;7.03;100.00
69957;BME280;57283;54.816;9.482;2022-11-15T03:41:57;100630.06;;;7.04;100.00
69957;BME280;57283;54.816;9.482;2022-11-15T03:44:34;100639.69;;;6.99;100.00
69957;BME280;57283;54.816;9.482;2022-11-15T03:47:08;100633.84;;;6.83;100.00
69957;BME280;57283;54.816;9.482;2022-11-15T03:49:42;100625.09;;;6.87;100.00
69957;BME280;57283;54.816;9.482;2022-11-15T03:52:12;100617.44;;;6.78;100.00
69957;BME280;57283;54.816;9.482;2022-11-15T03:54:48;100615.75;;;6.76;100.00
69957;BME280;57283;54.816;9.482;2022-11-15T03:57:16;100609.94;;;6.57;100.00
69957;BME280;57283;54.816;9.482;2022-11-15T03:59:44;100607.41;;;6.52;100.00
69957;BME280;57283;54.816;9.482;2022-11-15T04:02:12;100608.38;;;6.44;100.00
69957;BME280;57283;54.816;9.482;2022-11-15T04:04:41;100607.53;;;6.40;100.00
69957;BME280;57283;54.816;9.482;2022-11-15T04:07:09;100615.47;;;6.29;100.00
69957;BME280;57283;54.816;9.482;2022-11-15T04:09:37;100621.53;;;6.28;100.00
69957;BME280;57283;54.816;9.482;2022-11-15T04:12:26;100626.78;;;6.21;100.00
69957;BME280;57283;54.816;9.482;2022-11-15T04:14:59;100619.97;;;6.11;100.00
69957;BME280;57283;54.816;9.482;2022-11-15T04:17:38;100633.84;;;6.08;100.00
69957;BME280;57283;54.816;9.482;2022-11-15T04:20:10;100614.06;;;5.98;100.00
69957;BME280;57283;54.816;9.482;2022-11-15T04:22:57;100624.47;;;5.95;100.00
69957;BME280;57283;54.816;9.482;2022-11-15T04:25:43;100621.88;;;5.95;100.00
69957;BME280;57283;54.816;9.482;2022-11-15T04:28:11;100626.22;;;5.90;100.00
69957;BME280;57283;54.816;9.482;2022-11-15T04:30:39;100524.00;;;5.31;100.00
69957;BME280;57283;54.816;9.482;2022-11-15T04:33:07;100619.41;;;5.80;100.00
69957;BME280;57283;54.816;9.482;2022-11-15T04:35:37;100633.22;;;5.82;100.00
69957;BME280;57283;54.816;9.482;2022-11-15T04:38:06;100628.09;;;5.73;100.00
69957;BME280;57283;54.816;9.482;2022-11-15T04:40:34;100627.28;;;5.69;100.00
69957;BME280;57283;54.816;9.482;2022-11-15T04:43:02;100629.03;;;5.67;100.00
69957;BME280;57283;54.816;9.482;2022-11-15T04:45:30;100631.63;;;5.66;100.00
69957;BME280;57283;54.816;9.482;2022-11-15T04:47:58;100632.50;;;5.63;100.00
69957;BME280;57283;54.816;9.482;2022-11-15T04:50:26;100636.00;;;5.56;100.00
69957;BME280;57283;54.816;9.482;2022-11-15T04:52:55;100633.47;;;5.51;100.00
69957;BME280;57283;54.816;9.482;2022-11-15T04:55:23;100632.63;;;5.49;100.00
69957;BME280;57283;54.816;9.482;2022-11-15T04:57:57;100634.34;;;5.49;100.00
69957;BME280;57283;54.816;9.482;2022-11-15T05:00:27;100642.16;;;5.44;100.00
69957;BME280;57283;54.816;9.482;2022-11-15T05:02:55;100647.34;;;5.38;100.00
69957;BME280;57283;54.816;9.482;2022-11-15T05:05:41;100652.53;;;5.38;100.00
69957;BME280;57283;54.816;9.482;2022-11-15T05:08:10;100625.97;;;5.16;100.00
69957;BME280;57283;54.816;9.482;2022-11-15T05:10:38;100650.88;;;5.31;100.00
69957;BME280;57283;54.816;9.482;2022-11-15T05:13:06;100650.03;;;5.31;100.00
69957;BME280;57283;54.816;9.482;2022-11-15T05:15:33;100654.38;;;5.21;100.00
69957;BME280;57283;54.816;9.482;2022-11-15T05:18:01;100658.66;;;5.26;100.00
69957;BME280;57283;54.816;9.482;2022-11-15T05:20:29;100656.94;;;5.29;100.00
69957;BME280;57283;54.816;9.482;2022-11-15T05:22:57;100598.47;;;4.93;100.00
69957;BME280;57283;54.816;9.482;2022-11-15T05:25:26;100648.41;;;5.14;100.00
69957;BME280;57283;54.816;9.482;2022-11-15T05:27:54;100623.47;;;5.00;100.00
69957;BME280;57283;54.816;9.482;2022-11-15T05:30:22;100648.41;;;5.11;100.00
69957;BME280;57283;54.816;9.482;2022-11-15T05:32:50;100637.19;;;5.11;100.00
69957;BME280;57283;54.816;9.482;2022-11-15T05:35:21;100644.09;;;5.10;100.00
69957;BME280;57283;54.816;9.482;2022-11-15T05:37:54;100627.81;;;4.96;100.00
69957;BME280;57283;54.816;9.482;2022-11-15T05:40:23;100641.59;;;5.01;100.00
69957;BME280;57283;54.816;9.482;2022-11-15T05:42:53;100633.84;;;4.94;100.00
69957;BME280;57283;54.816;9.482;2022-11-15T05:45:21;100618.41;;;4.75;100.00
69957;BME280;57283;54.816;9.482;2022-11-15T05:47:54;100639.09;;;4.84;100.00
69957;BME280;57283;54.816;9.482;2022-11-15T05:50:24;100649.44;;;4.81;100.00
69957;BME280;57283;54.816;9.482;2022-11-15T05:52:54;100656.28;;;4.88;100.00
69957;BME280;57283;54.816;9.482;2022-11-15T05:55:29;100665.81;;;4.83;100.00
69957;BME280;57283;54.816;9.482;2022-11-15T05:57:58;100670.13;;;4.84;100.00
69957;BME280;57283;54.816;9.482;2022-11-15T06:00:27;100648.56;;;4.84;100.00
69957;BME280;57283;54.816;9.482;2022-11-15T06:02:55;100645.97;;;4.85;100.00
69957;BME280;57283;54.816;9.482;2022-11-15T06:05:23;100640.81;;;4.84;100.00
69957;BME280;57283;54.816;9.482;2022-11-15T06:07:51;100646.84;;;4.81;100.00
69957;BME280;57283;54.816;9.482;2022-11-15T06:10:19;100630.50;;;4.70;100.00
69957;BME280;57283;54.816;9.482;2022-11-15T06:12:57;100640.84;;;4.76;100.00
69957;BME280;57283;54.816;9.482;2022-11-15T06:15:26;100643.47;;;4.66;100.00
69957;BME280;57283;54.816;9.482;2022-11-15T06:17:56;100618.50;;;4.52;100.00
69957;BME280;57283;54.816;9.482;2022-11-15T06:20:24;100664.97;;;4.83;100.00
69957;BME280;57283;54.816;9.482;2022-11-15T06:22:56;100667.50;;;4.86;100.00
69957;BME280;57283;54.816;9.482;2022-11-15T06:25:24;100682.22;;;4.82;100.00
69957;BME280;57283;54.816;9.482;2022-11-15T06:27:52;100666.69;;;4.79;100.00
69957;BME280;57283;54.816;9.482;2022-11-15T06:30:22;100634.88;;;4.62;100.00
69957;BME280;57283;54.816;9.482;2022-11-15T06:32:51;100671.88;;;4.82;100.00
69957;BME280;57283;54.816;9.482;2022-11-15T06:35:19;100678.78;;;4.82;100.00
69957;BME280;57283;54.816;9.482;2022-11-15T06:37:47;100679.59;;;4.87;100.00
69957;BME280;57283;54.816;9.482;2022-11-15T06:40:15;100684.81;;;4.79;100.00
69957;BME280;57283;54.816;9.482;2022-11-15T06:42:43;100702.00;;;4.88;100.00
69957;BME280;57283;54.816;9.482;2022-11-15T06:45:11;100700.28;;;4.90;100.00
69957;BME280;57283;54.816;9.482;2022-11-15T06:47:45;100680.50;;;4.81;100.00
69957;BME280;57283;54.816;9.482;2022-11-15T06:50:14;100695.94;;;4.97;100.00
69957;BME280;57283;54.816;9.482;2022-11-15T06:52:42;100687.31;;;4.98;100.00
69957;BME280;57283;54.816;9.482;2022-11-15T06:55:10;100682.06;;;5.10;100.00
69957;BME280;57283;54.816;9.482;2022-11-15T06:57:46;100688.97;;;5.15;100.00
69957;BME280;57283;54.816;9.482;2022-11-15T07:00:15;100686.31;;;5.21;100.00
69957;BME280;57283;54.816;9.482;2022-11-15T07:02:45;100676.72;;;5.37;100.00
69957;BME280;57283;54.816;9.482;2022-11-15T07:05:13;100637.97;;;5.23;100.00
69957;BME280;57283;54.816;9.482;2022-11-15T07:07:41;100676.72;;;5.37;100.00
69957;BME280;57283;54.816;9.482;2022-11-15T07:10:10;100662.09;;;5.32;100.00
69957;BME280;57283;54.816;9.482;2022-11-15T07:12:37;100673.22;;;5.47;100.00
69957;BME280;57283;54.816;9.482;2022-11-15T07:15:06;100668.69;;;5.72;100.00
69957;BME280;57283;54.816;9.482;2022-11-15T07:17:34;100664.31;;;5.82;100.00
69957;BME280;57283;54.816;9.482;2022-11-15T07:20:05;100665.16;;;5.85;100.00
69957;BME280;57283;54.816;9.482;2022-11-15T07:22:33;100671.28;;;5.71;100.00
69957;BME280;57283;54.816;9.482;2022-11-15T07:25:01;100667.78;;;5.81;100.00
69957;BME280;57283;54.816;9.482;2022-11-15T07:27:28;100661.59;;;5.99;100.00
69957;BME280;57283;54.816;9.482;2022-11-15T07:29:56;100659.94;;;5.90;100.00
69957;BME280;57283;54.816;9.482;2022-11-15T07:32:24;100666.84;;;5.89;100.00
69957;BME280;57283;54.816;9.482;2022-11-15T07:34:52;100667.63;;;6.01;100.00
69957;BME280;57283;54.816;9.482;2022-11-15T07:37:21;100659.78;;;6.05;100.00
69957;BME280;57283;54.816;9.482;2022-11-15T07:39:49;100670.75;;;6.35;100.00
69957;BME280;57283;54.816;9.482;2022-11-15T07:42:17;100669.72;;;6.49;100.00
69957;BME280;57283;54.816;9.482;2022-11-15T07:45:16;100669.06;;;6.30;100.00
69957;BME280;57283;54.816;9.482;2022-11-15T07:47:45;100675.00;;;6.40;100.00
69957;BME280;57283;54.816;9.482;2022-11-15T07:50:13;100673.06;;;6.57;100.00
69957;BME280;57283;54.816;9.482;2022-11-15T07:52:43;100673.09;;;6.54;100.00
69957;BME280;57283;54.816;9.482;2022-11-15T07:55:11;100565.63;;;6.03;100.00
69957;BME280;57283;54.816;9.482;2022-11-15T07:57:39;100654.72;;;6.71;100.00
69957;BME280;57283;54.816;9.482;2022-11-15T08:00:08;100664.78;;;6.97;100.00
69957;BME280;57283;54.816;9.482;2022-11-15T08:02:36;100650.59;;;7.21;100.00
69957;BME280;57283;54.816;9.482;2022-11-15T08:05:04;100642.44;;;7.47;100.00
69957;BME280;57283;54.816;9.482;2022-11-15T08:07:32;100639.16;;;7.34;100.00
69957;BME280;57283;54.816;9.482;2022-11-15T08:10:02;100648.31;;;7.56;100.00
69957;BME280;57283;54.816;9.482;2022-11-15T08:12:32;100645.91;;;7.46;100.00
69957;BME280;57283;54.816;9.482;2022-11-15T08:15:00;100650.28;;;7.42;100.00
69957;BME280;57283;54.816;9.482;2022-11-15T08:17:28;100647.63;;;7.47;100.00
69957;BME280;57283;54.816;9.482;2022-11-15T08:19:59;100548.63;;;6.51;100.00
69957;BME280;57283;54.816;9.482;2022-11-15T08:22:27;100652.03;;;7.40;100.00
69957;BME280;57283;54.816;9.482;2022-11-15T08:24:55;100650.03;;;7.57;100.00
69957;BME280;57283;54.816;9.482;2022-11-15T08:27:24;100652.13;;;7.37;100.00
69957;BME280;57283;54.816;9.482;2022-11-15T08:29:52;100656.59;;;7.26;100.00
69957;BME280;57283;54.816;9.482;2022-11-15T08:32:25;100659.16;;;7.29;100.00
69957;BME280;57283;54.816;9.482;2022-11-15T08:34:52;100661.06;;;7.18;100.00
69957;BME280;57283;54.816;9.482;2022-11-15T08:37:20;100663.94;;;6.95;100.00
69957;BME280;57283;54.816;9.482;2022-11-15T08:39:48;100656.00;;;7.06;100.00
69957;BME280;57283;54.816;9.482;2022-11-15T08:42:16;100665.38;;;7.19;100.00
69957;BME280;57283;54.816;9.482;2022-11-15T08:44:47;100673.72;;;7.38;100.00
69957;BME280;57283;54.816;9.482;2022-11-15T08:47:14;100670.41;;;7.29;100.00
69957;BME280;57283;54.816;9.482;2022-11-15T08:49:42;100668.00;;;7.16;100.00
69957;BME280;57283;54.816;9.482;2022-11-15T08:52:10;100672.97;;;7.31;100.00
69957;BME280;57283;54.816;9.482;2022-11-15T08:54:38;100674.75;;;7.29;100.00
69957;BME280;57283;54.816;9.482;2022-11-15T08:57:06;100678.09;;;7.37;100.00
69957;BME280;57283;54.816;9.482;2022-11-15T08:59:36;100677.25;;;7.35;100.00
69957;BME280;57283;54.816;9.482;2022-11-15T09:02:05;100688.38;;;7.43;100.00
69957;BME280;57283;54.816;9.482;2022-11-15T09:04:33;100688.34;;;7.46;100.00
69957;BME280;57283;54.816;9.482;2022-11-15T09:07:01;100684.19;;;7.34;100.00
69957;BME280;57283;54.816;9.482;2022-11-15T09:09:29;100658.50;;;7.13;100.00
69957;BME280;57283;54.816;9.482;2022-11-15T09:11:56;100684.63;;;7.62;100.00
69957;BME280;57283;54.816;9.482;2022-11-15T09:14:28;100679.16;;;7.79;100.00
69957;BME280;57283;54.816;9.482;2022-11-15T09:16:56;100688.38;;;7.98;100.00
69957;BME280;57283;54.816;9.482;2022-11-15T09:19:26;100656.41;;;7.92;100.00
69957;BME280;57283;54.816;9.482;2022-11-15T09:21:54;100683.72;;;8.17;100.00
69957;BME280;57283;54.816;9.482;2022-11-15T09:24:22;100691.78;;;8.02;100.00
69957;BME280;57283;54.816;9.482;2022-11-15T09:26:50;100689.81;;;8.16;100.00
69957;BME280;57283;54.816;9.482;2022-11-15T09:29:18;100693.28;;;8.15;100.00
69957;BME280;57283;54.816;9.482;2022-11-15T09:31:46;100686.19;;;8.23;100.00
69957;BME280;57283;54.816;9.482;2022-11-15T09:34:14;100696.44;;;8.35;100.00
69957;BME280;57283;54.816;9.482;2022-11-15T09:36:43;100650.53;;;8.28;100.00
69957;BME280;57283;54.816;9.482;2022-11-15T09:39:11;100671.34;;;8.28;100.00
69957;BME280;57283;54.816;9.482;2022-11-15T09:41:58;100678.22;;;8.35;100.00
69957;BME280;57283;54.816;9.482;2022-11-15T09:44:39;100672.00;;;8.41;100.00
69957;BME280;57283;54.816;9.482;2022-11-15T09:47:29;100676.34;;;8.40;100.00
69957;BME280;57283;54.816;9.482;2022-11-15T09:50:06;100673.25;;;8.66;100.00
69957;BME280;57283;54.816;9.482;2022-11-15T09:52:37;100681.91;;;8.68;100.00
69957;BME280;57283;54.816;9.482;2022-11-15T09:55:09;100674.78;;;8.77;100.00
69957;BME280;57283;54.816;9.482;2022-11-15T09:57:41;100680.22;;;8.66;100.00
69957;BME280;57283;54.816;9.482;2022-11-15T10:00:16;100681.09;;;8.65;100.00
69957;BME280;57283;54.816;9.482;2022-11-15T10:03:11;100676.97;;;8.96;100.00
69957;BME280;57283;54.816;9.482;2022-11-15T10:05:41;100676.63;;;9.13;100.00
69957;BME280;57283;54.816;9.482;2022-11-15T10:08:25;100678.56;;;9.03;100.00
69957;BME280;57283;54.816;9.482;2022-11-15T10:10:59;100665.91;;;8.87;100.00
69957;BME280;57283;54.816;9.482;2022-11-15T10:13:48;100665.22;;;9.19;100.00
69957;BME280;57283;54.816;9.482;2022-11-15T10:16:30;100657.47;;;9.16;100.00
69957;BME280;57283;54.816;9.482;2022-11-15T10:19:08;100640.63;;;8.90;100.00
69957;BME280;57283;54.816;9.482;2022-11-15T10:21:47;100661.22;;;9.02;100.00
69957;BME280;57283;54.816;9.482;2022-11-15T10:24:26;100645.44;;;9.08;100.00
69957;BME280;57283;54.816;9.482;2022-11-15T10:26:56;100653.22;;;9.10;100.00
69957;BME280;57283;54.816;9.482;2022-11-15T10:29:24;100659.44;;;9.04;100.00
69957;BME280;57283;54.816;9.482;2022-11-15T10:31:53;100655.53;;;9.24;100.00
69957;BME280;57283;54.816;9.482;2022-11-15T10:34:22;100655.47;;;9.27;100.00
69957;BME280;57283;54.816;9.482;2022-11-15T10:36:55;100658.81;;;9.32;100.00
69957;BME280;57283;54.816;9.482;2022-11-15T10:39:25;100643.72;;;9.07;100.00
69957;BME280;57283;54.816;9.482;2022-11-15T10:41:54;100652.53;;;9.40;100.00
69957;BME280;57283;54.816;9.482;2022-11-15T10:44:24;100659.00;;;9.61;100.00
69957;BME280;57283;54.816;9.482;2022-11-15T10:47:22;100660.31;;;9.42;100.00
69957;BME280;57283;54.816;9.482;2022-11-15T10:49:55;100641.88;;;9.13;100.00
69957;BME280;57283;54.816;9.482;2022-11-15T10:52:23;100642.97;;;9.41;100.00
69957;BME280;57283;54.816;9.482;2022-11-15T10:54:55;100651.53;;;9.46;100.00
69957;BME280;57283;54.816;9.482;2022-11-15T10:57:27;100648.03;;;9.47;100.00
69957;BME280;57283;54.816;9.482;2022-11-15T10:59:57;100647.25;;;9.43;100.00
69957;BME280;57283;54.816;9.482;2022-11-15T11:02:32;100641.78;;;9.54;100.00
69957;BME280;57283;54.816;9.482;2022-11-15T11:05:04;100643.16;;;9.69;100.00
69957;BME280;57283;54.816;9.482;2022-11-15T11:07:34;100634.31;;;9.74;100.00
69957;BME280;57283;54.816;9.482;2022-11-15T11:10:18;100639.69;;;9.68;100.00
69957;BME280;57283;54.816;9.482;2022-11-15T11:13:13;100639.25;;;9.87;100.00
69957;BME280;57283;54.816;9.482;2022-11-15T11:15:44;100630.44;;;9.55;100.00
69957;BME280;57283;54.816;9.482;2022-11-15T11:18:19;100631.84;;;9.70;100.00
69957;BME280;57283;54.816;9.482;2022-11-15T11:20:58;100640.22;;;9.83;100.00
69957;BME280;57283;54.816;9.482;2022-11-15T11:23:43;100638.78;;;9.71;100.00
69957;BME280;57283;54.816;9.482;2022-11-15T11:26:29;100630.94;;;9.71;100.00
69957;BME280;57283;54.816;9.482;2022-11-15T11:29:05;100626.59;;;9.71;100.00
69957;BME280;57283;54.816;9.482;2022-11-15T11:31:42;100632.63;;;9.72;100.00
69957;BME280;57283;54.816;9.482;2022-11-15T11:34:21;100620.59;;;9.68;100.00
69957;BME280;57283;54.816;9.482;2022-11-15T11:37:01;100624.63;;;9.79;100.00
69957;BME280;57283;54.816;9.482;2022-11-15T11:39:36;100627.34;;;9.75;100.00
69957;BME280;57283;54.816;9.482;2022-11-15T11:42:17;100625.88;;;9.65;100.00
69957;BME280;57283;54.816;9.482;2022-11-15T11:44:56;100602.44;;;9.63;100.00
69957;BME280;57283;54.816;9.482;2022-11-15T11:47:31;100627.91;;;9.88;100.00
69957;BME280;57283;54.816;9.482;2022-11-15T11:50:02;100624.50;;;9.86;100.00
69957;BME280;57283;54.816;9.482;2022-11-15T11:52:38;100618.94;;;9.98;100.00
69957;BME280;57283;54.816;9.482;2022-11-15T11:55:14;100620.66;;;9.99;100.00
69957;BME280;57283;54.816;9.482;2022-11-15T11:57:50;100618.94;;;9.98;100.00
69957;BME280;57283;54.816;9.482;2022-11-15T12:00:21;100615.38;;;10.02;100.00
69957;BME280;57283;54.816;9.482;2022-11-15T12:03:00;100617.97;;;10.02;100.00
69957;BME280;57283;54.816;9.482;2022-11-15T12:05:35;100614.78;;;9.91;100.00
69957;BME280;57283;54.816;9.482;2022-11-15T12:08:25;100629.28;;;9.68;100.00
69957;BME280;57283;54.816;9.482;2022-11-15T12:11:02;100612.78;;;9.32;100.00
69957;BME280;57283;54.816;9.482;2022-11-15T12:13:33;100616.22;;;9.68;100.00
69957;BME280;57283;54.816;9.482;2022-11-15T12:16:07;100592.94;;;9.95;100.00
69957;BME280;57283;54.816;9.482;2022-11-15T12:18:38;100606.34;;;9.81;100.00
69957;BME280;57283;54.816;9.482;2022-11-15T12:21:16;100604.47;;;9.86;100.00
69957;BME280;57283;54.816;9.482;2022-11-15T12:23:55;100586.06;;;9.91;100.00
69957;BME280;57283;54.816;9.482;2022-11-15T12:26:31;100600.00;;;9.90;100.00
69957;BME280;57283;54.816;9.482;2022-11-15T12:29:06;100556.97;;;9.73;100.00
69957;BME280;57283;54.816;9.482;2022-11-15T12:31:40;100555.09;;;9.78;100.00
69957;BME280;57283;54.816;9.482;2022-11-15T12:34:29;100588.88;;;9.85;100.00
69957;BME280;57283;54.816;9.482;2022-11-15T12:36:59;100586.22;;;9.86;100.00
69957;BME280;57283;54.816;9.482;2022-11-15T12:40:05;100575.75;;;9.88;100.00
69957;BME280;57283;54.816;9.482;2022-11-15T12:42:58;100582.34;;;9.68;100.00
69957;BME280;57283;54.816;9.482;2022-11-15T12:45:30;100582.56;;;9.92;100.00
69957;BME280;57283;54.816;9.482;2022-11-15T12:51:04;100576.09;;;9.74;100.00
69957;BME280;57283;54.816;9.482;2022-11-15T12:53:33;100573.78;;;9.96;100.00
69957;BME280;57283;54.816;9.482;2022-11-15T12:56:20;100568.84;;;9.85;100.00
69957;BME280;57283;54.816;9.482;2022-11-15T12:58:55;100555.66;;;9.90;100.00
69957;BME280;57283;54.816;9.482;2022-11-15T13:02:00;100553.88;;;9.92;100.00
69957;BME280;57283;54.816;9.482;2022-11-15T13:04:29;100555.72;;;9.88;100.00
69957;BME280;57283;54.816;9.482;2022-11-15T13:07:00;100535.88;;;9.83;100.00
69957;BME280;57283;54.816;9.482;2022-11-15T13:09:52;100556.31;;;9.98;100.00
69957;BME280;57283;54.816;9.482;2022-11-15T13:12:48;100556.03;;;9.76;100.00
69957;BME280;57283;54.816;9.482;2022-11-15T13:15:35;100554.31;;;9.75;100.00
69957;BME280;57283;54.816;9.482;2022-11-15T13:18:43;100547.06;;;9.88;100.00
69957;BME280;57283;54.816;9.482;2022-11-15T13:21:22;100545.22;;;9.90;100.00
69957;BME280;57283;54.816;9.482;2022-11-15T13:24:13;100503.19;;;9.69;100.00